createdAt,value
2022-08-28T00:00:10.503Z,15.60
2022-08-28T00:01:10.489Z,13.40
2022-08-28T00:02:10.485Z,14.30
2022-08-28T00:03:10.615Z,15.10
2022-08-28T00:04:10.519Z,16.70
2022-08-28T00:05:10.464Z,15.50
2022-08-28T00:06:10.439Z,16.30
2022-08-28T00:07:10.424Z,14.90
2022-08-28T00:08:10.584Z,18.70
2022-08-28T00:09:11.440Z,14.90
2022-08-28T00:10:10.388Z,15.30
2022-08-28T00:11:10.380Z,14.60
2022-08-28T00:12:10.366Z,14.70
2022-08-28T00:13:10.356Z,18.50
2022-08-28T00:14:10.344Z,18.70
2022-08-28T00:15:10.336Z,13.30
2022-08-28T00:16:10.651Z,17.60
2022-08-28T00:17:10.315Z,13.60
2022-08-28T00:18:10.309Z,13.50
2022-08-28T00:19:10.289Z,12.40
2022-08-28T00:20:10.647Z,13.60
2022-08-28T00:21:10.341Z,14.30
2022-08-28T00:22:10.375Z,17.60
2022-08-28T00:23:10.298Z,13.40
2022-08-28T00:24:10.237Z,16.50
2022-08-28T00:25:10.425Z,15.40
2022-08-28T00:26:10.212Z,18.40
2022-08-28T00:27:10.203Z,12.90
2022-08-28T00:28:10.589Z,14.50
2022-08-28T00:29:11.205Z,16.30
2022-08-28T00:30:10.166Z,15.30
2022-08-28T00:31:10.197Z,13.40
2022-08-28T00:32:10.147Z,13.00
2022-08-28T00:33:10.636Z,15.00
2022-08-28T00:34:10.125Z,13.50
2022-08-28T00:35:10.113Z,15.60
2022-08-28T00:36:10.101Z,14.70
2022-08-28T00:37:10.093Z,14.00
2022-08-28T00:38:10.174Z,12.40
2022-08-28T00:39:10.067Z,16.20
2022-08-28T00:40:10.083Z,11.50
2022-08-28T00:41:10.047Z,17.70
2022-08-28T00:42:10.037Z,15.20
2022-08-28T00:43:10.031Z,14.90
2022-08-28T00:44:10.144Z,15.40
2022-08-28T00:45:10.002Z,11.00
2022-08-28T00:46:10.055Z,17.40
2022-08-28T00:47:09.982Z,16.90
2022-08-28T00:48:09.967Z,16.30
2022-08-28T00:49:09.959Z,12.30
2022-08-28T00:50:09.945Z,14.00
2022-08-28T00:51:09.937Z,12.00
2022-08-28T00:52:11.715Z,19.70
2022-08-28T00:53:09.912Z,16.50
2022-08-28T00:54:09.902Z,15.90
2022-08-28T00:55:09.889Z,16.20
2022-08-28T00:56:12.289Z,15.70
2022-08-28T00:57:09.869Z,12.00
2022-08-28T00:58:09.855Z,14.40
2022-08-28T00:59:09.845Z,17.40
2022-08-28T01:00:09.833Z,13.00
2022-08-28T01:01:09.824Z,17.40
2022-08-28T01:02:09.813Z,16.00
2022-08-28T01:03:09.918Z,14.00
2022-08-28T01:04:09.787Z,18.80
2022-08-28T01:05:09.791Z,19.00
2022-08-28T01:06:09.767Z,14.30
2022-08-28T01:07:09.755Z,17.40
2022-08-28T01:08:09.875Z,16.00
2022-08-28T01:09:09.734Z,13.40
2022-08-28T01:10:09.722Z,18.40
2022-08-28T01:11:09.712Z,14.40
2022-08-28T01:12:09.703Z,16.60
2022-08-28T01:13:09.688Z,16.80
2022-08-28T01:14:09.674Z,14.90
2022-08-28T01:15:09.669Z,10.80
2022-08-28T01:16:09.741Z,10.80
2022-08-28T01:17:09.645Z,13.10
2022-08-28T01:18:09.731Z,19.60
2022-08-28T01:19:09.622Z,17.00
2022-08-28T01:20:09.611Z,13.00
2022-08-28T01:21:09.602Z,14.50
2022-08-28T01:22:09.596Z,19.20
2022-08-28T01:23:09.583Z,18.30
2022-08-28T01:24:09.568Z,13.90
2022-08-28T01:25:09.554Z,13.10
2022-08-28T01:26:10.978Z,13.80
2022-08-28T01:27:09.549Z,13.40
2022-08-28T01:28:09.520Z,12.70
2022-08-28T01:29:09.514Z,15.70
2022-08-28T01:30:09.500Z,14.90
2022-08-28T01:31:09.627Z,13.60
2022-08-28T01:32:09.478Z,18.10
2022-08-28T01:33:09.467Z,16.80
2022-08-28T01:34:09.454Z,13.20
2022-08-28T01:35:09.441Z,12.50
2022-08-28T01:36:09.431Z,16.10
2022-08-28T01:37:09.521Z,17.20
2022-08-28T01:38:09.554Z,15.00
2022-08-28T01:39:09.397Z,15.80
2022-08-28T01:40:09.504Z,15.90
2022-08-28T01:41:09.374Z,13.40
2022-08-28T01:42:09.365Z,13.10
2022-08-28T01:43:09.350Z,15.10
2022-08-28T01:44:09.344Z,15.60
2022-08-28T01:45:09.332Z,15.90
2022-08-28T01:46:09.335Z,13.40
2022-08-28T01:47:09.310Z,21.00
2022-08-28T01:48:09.426Z,17.30
2022-08-28T01:49:09.284Z,13.20
2022-08-28T01:50:09.276Z,13.40
2022-08-28T01:51:09.259Z,12.20
2022-08-28T01:52:09.251Z,15.70
2022-08-28T01:53:12.396Z,13.20
2022-08-28T01:54:09.905Z,16.20
2022-08-28T01:55:09.219Z,12.70
2022-08-28T01:56:09.208Z,13.40
2022-08-28T01:57:09.193Z,13.60
2022-08-28T01:58:09.311Z,14.10
2022-08-28T01:59:09.176Z,17.70
2022-08-28T02:00:09.161Z,15.60
2022-08-28T02:01:09.151Z,14.60
2022-08-28T02:02:09.254Z,13.20
2022-08-28T02:03:09.126Z,13.50
2022-08-28T02:04:09.198Z,13.50
2022-08-28T02:05:09.109Z,13.40
2022-08-28T02:06:09.095Z,18.00
2022-08-28T02:07:09.084Z,18.20
2022-08-28T02:08:09.160Z,12.30
2022-08-28T02:09:14.640Z,15.40
2022-08-28T02:10:09.052Z,14.00
2022-08-28T02:11:09.042Z,14.10
2022-08-28T02:12:09.029Z,17.70
2022-08-28T02:13:09.016Z,14.40
2022-08-28T02:14:09.006Z,16.50
2022-08-28T02:15:08.997Z,14.80
2022-08-28T02:16:09.078Z,13.60
2022-08-28T02:17:08.971Z,12.20
2022-08-28T02:18:09.079Z,15.90
2022-08-28T02:19:08.950Z,16.40
2022-08-28T02:20:08.939Z,19.80
2022-08-28T02:21:08.928Z,17.20
2022-08-28T02:22:08.919Z,17.20
2022-08-28T02:23:08.903Z,13.30
2022-08-28T02:24:08.893Z,12.90
2022-08-28T02:25:08.881Z,16.50
2022-08-28T02:26:08.872Z,15.10
2022-08-28T02:27:08.860Z,22.20
2022-08-28T02:28:08.962Z,19.20
2022-08-28T02:29:08.837Z,16.00
2022-08-28T02:30:08.827Z,14.30
2022-08-28T02:31:08.910Z,19.30
2022-08-28T02:32:08.805Z,14.40
2022-08-28T02:33:08.793Z,15.40
2022-08-28T02:34:08.781Z,19.00
2022-08-28T02:35:12.056Z,14.50
2022-08-28T02:36:08.784Z,13.40
2022-08-28T02:37:08.749Z,15.60
2022-08-28T02:38:08.760Z,14.10
2022-08-28T02:39:08.723Z,16.00
2022-08-28T02:40:08.751Z,15.80
2022-08-28T02:41:08.702Z,14.30
2022-08-28T02:42:08.695Z,14.20
2022-08-28T02:43:08.681Z,16.50
2022-08-28T02:44:08.671Z,14.90
2022-08-28T02:45:08.656Z,17.50
2022-08-28T02:46:08.743Z,14.20
2022-08-28T02:47:08.633Z,13.30
2022-08-28T02:48:15.689Z,13.40
2022-08-28T02:49:09.646Z,13.80
2022-08-28T02:50:08.603Z,15.30
2022-08-28T02:51:08.589Z,14.50
2022-08-28T02:52:08.580Z,13.80
2022-08-28T02:53:08.570Z,17.60
2022-08-28T02:54:08.557Z,18.20
2022-08-28T02:55:08.547Z,12.90
2022-08-28T02:56:08.536Z,12.60
2022-08-28T02:57:08.522Z,17.10
2022-08-28T02:58:08.556Z,15.50
2022-08-28T02:59:08.501Z,17.10
2022-08-28T03:00:08.488Z,13.50
2022-08-28T03:01:08.541Z,14.20
2022-08-28T03:02:08.510Z,18.60
2022-08-28T03:03:08.454Z,12.80
2022-08-28T03:04:08.445Z,13.60
2022-08-28T03:05:08.435Z,15.50
2022-08-28T03:06:08.428Z,13.40
2022-08-28T03:07:08.411Z,12.00
2022-08-28T03:08:08.401Z,15.50
2022-08-28T03:09:08.389Z,15.30
2022-08-28T03:10:08.378Z,14.90
2022-08-28T03:11:08.369Z,14.00
2022-08-28T03:12:08.366Z,14.50
2022-08-28T03:13:08.345Z,19.40
2022-08-28T03:14:08.334Z,19.80
2022-08-28T03:15:08.322Z,15.40
2022-08-28T03:16:08.313Z,11.30
2022-08-28T03:17:08.300Z,14.70
2022-08-28T03:18:08.399Z,12.90
2022-08-28T03:19:08.277Z,13.40
2022-08-28T03:20:08.270Z,16.50
2022-08-28T03:21:08.254Z,16.80
2022-08-28T03:22:08.245Z,15.40
2022-08-28T03:23:08.232Z,15.70
2022-08-28T03:24:08.229Z,18.50
2022-08-28T03:25:08.212Z,14.90
2022-08-28T03:26:08.214Z,13.60
2022-08-28T03:27:08.191Z,14.60
2022-08-28T03:28:08.179Z,16.90
2022-08-28T03:29:08.169Z,14.70
2022-08-28T03:30:08.156Z,15.40
2022-08-28T03:31:08.277Z,14.90
2022-08-28T03:32:08.133Z,14.40
2022-08-28T03:33:08.121Z,16.40
2022-08-28T03:34:08.120Z,12.10
2022-08-28T03:35:08.098Z,17.30
2022-08-28T03:36:08.089Z,15.70
2022-08-28T03:37:08.078Z,17.30
2022-08-28T03:38:08.068Z,20.00
2022-08-28T03:39:08.056Z,18.90
2022-08-28T03:40:08.143Z,12.60
2022-08-28T03:41:08.034Z,15.00
2022-08-28T03:42:08.025Z,15.10
2022-08-28T03:43:08.011Z,15.30
2022-08-28T03:44:08.004Z,16.00
2022-08-28T03:45:07.989Z,16.20
2022-08-28T03:46:08.043Z,16.00
2022-08-28T03:47:07.967Z,14.40
2022-08-28T03:48:07.959Z,15.20
2022-08-28T03:49:07.947Z,15.60
2022-08-28T03:50:07.937Z,13.20
2022-08-28T03:51:07.924Z,16.60
2022-08-28T03:52:07.916Z,13.10
2022-08-28T03:53:07.902Z,12.30
2022-08-28T03:54:07.894Z,15.60
2022-08-28T03:55:07.881Z,12.20
2022-08-28T03:56:07.871Z,16.50
2022-08-28T03:57:07.861Z,15.70
2022-08-28T03:58:07.850Z,11.60
2022-08-28T03:59:07.840Z,11.60
2022-08-28T04:01:07.881Z,15.30
2022-08-28T04:02:07.807Z,12.50
2022-08-28T04:03:07.860Z,13.10
2022-08-28T04:04:07.788Z,20.90
2022-08-28T04:05:07.773Z,18.00
2022-08-28T04:06:07.766Z,17.70
2022-08-28T04:07:07.749Z,18.90
2022-08-28T04:08:07.739Z,12.20
2022-08-28T04:09:07.726Z,14.00
2022-08-28T04:10:07.734Z,17.80
2022-08-28T04:11:07.713Z,17.50
2022-08-28T04:12:07.696Z,16.60
2022-08-28T04:13:07.685Z,16.20
2022-08-28T04:14:07.676Z,15.20
2022-08-28T04:15:07.660Z,14.70
2022-08-28T04:16:07.711Z,15.60
2022-08-28T04:17:07.719Z,13.70
2022-08-28T04:18:07.631Z,19.20
2022-08-28T04:19:07.616Z,12.50
2022-08-28T04:20:07.615Z,17.90
2022-08-28T04:21:07.597Z,19.20
2022-08-28T04:22:07.586Z,16.70
2022-08-28T04:23:07.573Z,16.40
2022-08-28T04:24:09.671Z,15.10
2022-08-28T04:25:07.555Z,18.30
2022-08-28T04:26:07.542Z,18.30
2022-08-28T04:27:07.532Z,14.30
2022-08-28T04:28:07.520Z,16.60
2022-08-28T04:29:07.507Z,12.90
2022-08-28T04:30:07.500Z,15.90
2022-08-28T04:31:07.488Z,14.70
2022-08-28T04:32:07.582Z,14.00
2022-08-28T04:33:07.474Z,16.80
2022-08-28T04:34:07.455Z,14.50
2022-08-28T04:35:07.445Z,17.20
2022-08-28T04:36:07.435Z,17.40
2022-08-28T04:37:07.420Z,14.30
2022-08-28T04:38:07.411Z,16.60
2022-08-28T04:39:07.398Z,22.20
2022-08-28T04:40:07.498Z,15.00
2022-08-28T04:41:07.376Z,15.90
2022-08-28T04:42:07.366Z,14.70
2022-08-28T04:43:07.362Z,17.20
2022-08-28T04:44:07.358Z,15.90
2022-08-28T04:45:07.331Z,14.70
2022-08-28T04:46:07.437Z,13.20
2022-08-28T04:47:07.308Z,14.70
2022-08-28T04:48:10.535Z,17.20
2022-08-28T04:49:08.318Z,14.00
2022-08-28T04:50:07.277Z,13.00
2022-08-28T04:51:07.263Z,17.40
2022-08-28T04:52:07.257Z,17.10
2022-08-28T04:53:07.245Z,12.20
2022-08-28T04:54:07.240Z,15.40
2022-08-28T04:55:07.241Z,15.40
2022-08-28T04:56:07.216Z,14.80
2022-08-28T04:57:07.199Z,13.10
2022-08-28T04:58:07.191Z,18.30
2022-08-28T04:59:07.178Z,14.00
2022-08-28T05:00:07.177Z,18.40
2022-08-28T05:01:07.203Z,11.90
2022-08-28T05:02:07.184Z,18.80
2022-08-28T05:03:07.168Z,16.50
2022-08-28T05:04:07.136Z,14.50
2022-08-28T05:05:07.171Z,18.20
2022-08-28T05:06:07.258Z,15.10
2022-08-28T05:07:07.240Z,15.10
2022-08-28T05:08:07.309Z,13.90
2022-08-28T05:09:07.215Z,12.60
2022-08-28T05:10:07.240Z,14.80
2022-08-28T05:11:07.083Z,18.50
2022-08-28T05:12:07.038Z,17.10
2022-08-28T05:13:07.025Z,14.60
2022-08-28T05:14:07.014Z,14.00
2022-08-28T05:15:07.026Z,14.70
2022-08-28T05:16:07.105Z,14.50
2022-08-28T05:17:07.391Z,16.90
2022-08-28T05:18:07.054Z,14.60
2022-08-28T05:19:06.960Z,15.30
2022-08-28T05:20:06.954Z,17.80
2022-08-28T05:21:06.942Z,17.20
2022-08-28T05:22:07.082Z,15.60
2022-08-28T05:23:06.915Z,13.30
2022-08-28T05:24:06.908Z,16.10
2022-08-28T05:25:06.897Z,15.60
2022-08-28T05:26:06.890Z,13.90
2022-08-28T05:27:06.873Z,12.50
2022-08-28T05:28:06.941Z,14.20
2022-08-28T05:29:06.963Z,11.50
2022-08-28T05:30:06.853Z,15.70
2022-08-28T05:31:07.000Z,17.00
2022-08-28T05:32:06.818Z,12.20
2022-08-28T05:33:06.807Z,11.70
2022-08-28T05:34:07.070Z,15.20
2022-08-28T05:35:06.788Z,13.90
2022-08-28T05:36:06.774Z,14.40
2022-08-28T05:37:06.760Z,14.50
2022-08-28T05:38:06.852Z,13.50
2022-08-28T05:39:06.738Z,11.10
2022-08-28T05:40:06.825Z,13.90
2022-08-28T05:41:06.713Z,18.50
2022-08-28T05:42:06.708Z,15.10
2022-08-28T05:43:06.692Z,16.90
2022-08-28T05:44:06.684Z,14.80
2022-08-28T05:45:06.671Z,14.60
2022-08-28T05:46:06.697Z,15.90
2022-08-28T05:47:06.649Z,12.40
2022-08-28T05:48:06.708Z,12.20
2022-08-28T05:49:09.848Z,14.70
2022-08-28T05:50:06.615Z,15.10
2022-08-28T05:51:06.650Z,20.90
2022-08-28T05:52:06.593Z,14.50
2022-08-28T05:53:06.583Z,14.60
2022-08-28T05:54:06.572Z,15.30
2022-08-28T05:55:06.564Z,15.60
2022-08-28T05:56:06.552Z,11.20
2022-08-28T05:57:06.538Z,15.90
2022-08-28T05:58:06.529Z,15.80
2022-08-28T05:59:06.516Z,14.40
2022-08-28T06:00:06.510Z,12.10
2022-08-28T06:01:06.494Z,13.30
2022-08-28T06:02:06.594Z,10.40
2022-08-28T06:03:06.489Z,13.10
2022-08-28T06:04:06.507Z,13.30
2022-08-28T06:05:06.457Z,12.90
2022-08-28T06:06:06.444Z,11.00
2022-08-28T06:07:06.429Z,13.10
2022-08-28T06:08:06.487Z,14.50
2022-08-28T06:09:06.406Z,14.20
2022-08-28T06:10:06.393Z,14.00
2022-08-28T06:11:07.211Z,12.60
2022-08-28T06:12:06.372Z,15.20
2022-08-28T06:13:06.549Z,11.60
2022-08-28T06:14:06.372Z,17.40
2022-08-28T06:15:06.338Z,15.50
2022-08-28T06:16:06.358Z,15.20
2022-08-28T06:17:06.320Z,10.70
2022-08-28T06:18:06.335Z,18.60
2022-08-28T06:19:06.300Z,9.40
2022-08-28T06:20:06.288Z,11.90
2022-08-28T06:21:06.272Z,13.70
2022-08-28T06:22:07.071Z,11.10
2022-08-28T06:23:06.253Z,13.50
2022-08-28T06:24:06.238Z,13.60
2022-08-28T06:25:08.002Z,13.70
2022-08-28T06:26:06.218Z,12.00
2022-08-28T06:27:06.206Z,11.40
2022-08-28T06:28:06.195Z,11.10
2022-08-28T06:29:06.183Z,12.50
2022-08-28T06:30:06.171Z,11.00
2022-08-28T06:31:23.305Z,9.70
2022-08-28T06:32:07.293Z,10.30
2022-08-28T06:33:06.142Z,14.40
2022-08-28T06:34:06.129Z,13.30
2022-08-28T06:35:06.118Z,10.20
2022-08-28T06:36:06.108Z,14.90
2022-08-28T06:37:06.097Z,11.20
2022-08-28T06:38:06.136Z,8.30
2022-08-28T06:39:06.076Z,11.80
2022-08-28T06:40:06.125Z,13.90
2022-08-28T06:41:06.055Z,12.30
2022-08-28T06:42:06.041Z,9.20
2022-08-28T06:43:06.031Z,11.90
2022-08-28T06:44:06.019Z,13.60
2022-08-28T06:45:06.009Z,12.90
2022-08-28T06:46:06.063Z,10.10
2022-08-28T06:47:06.001Z,14.00
2022-08-28T06:48:06.037Z,12.20
2022-08-28T06:49:05.966Z,9.50
2022-08-28T06:50:05.953Z,9.80
2022-08-28T06:51:05.944Z,12.80
2022-08-28T06:52:05.935Z,15.10
2022-08-28T06:53:05.922Z,9.70
2022-08-28T06:54:05.905Z,14.30
2022-08-28T06:55:05.899Z,13.40
2022-08-28T06:56:05.886Z,11.40
2022-08-28T06:57:05.877Z,11.40
2022-08-28T06:58:05.922Z,10.90
2022-08-28T06:59:05.888Z,12.00
2022-08-28T07:00:05.844Z,14.40
2022-08-28T07:01:05.857Z,10.80
2022-08-28T07:02:05.975Z,11.40
2022-08-28T07:03:05.826Z,12.10
2022-08-28T07:04:05.802Z,14.20
2022-08-28T07:05:05.792Z,15.40
2022-08-28T07:06:05.930Z,10.40
2022-08-28T07:07:05.768Z,12.10
2022-08-28T07:08:05.839Z,10.00
2022-08-28T07:09:05.745Z,10.20
2022-08-28T07:10:05.843Z,8.70
2022-08-28T07:11:05.724Z,13.40
2022-08-28T07:12:05.711Z,9.50
2022-08-28T07:13:05.702Z,12.50
2022-08-28T07:14:05.690Z,11.10
2022-08-28T07:15:05.682Z,11.40
2022-08-28T07:16:05.736Z,8.80
2022-08-28T07:17:05.659Z,14.10
2022-08-28T07:18:05.699Z,10.30
2022-08-28T07:19:05.641Z,9.30
2022-08-28T07:20:05.624Z,11.50
2022-08-28T07:21:08.053Z,11.90
2022-08-28T07:22:06.629Z,11.40
2022-08-28T07:23:05.592Z,10.10
2022-08-28T07:24:05.583Z,10.80
2022-08-28T07:25:05.576Z,13.40
2022-08-28T07:26:05.561Z,10.60
2022-08-28T07:27:05.552Z,11.00
2022-08-28T07:28:05.567Z,10.40
2022-08-28T07:29:10.091Z,12.50
2022-08-28T07:30:05.515Z,10.70
2022-08-28T07:31:05.585Z,13.80
2022-08-28T07:32:05.513Z,8.30
2022-08-28T07:33:05.486Z,9.60
2022-08-28T07:34:05.474Z,11.70
2022-08-28T07:35:05.464Z,9.90
2022-08-28T07:36:05.458Z,10.80
2022-08-28T07:37:05.442Z,14.50
2022-08-28T07:38:05.432Z,9.10
2022-08-28T07:39:05.426Z,16.20
2022-08-28T07:40:05.447Z,10.10
2022-08-28T07:41:05.403Z,9.60
2022-08-28T07:42:05.390Z,9.20
2022-08-28T07:43:05.572Z,10.40
2022-08-28T07:44:05.367Z,10.70
2022-08-28T07:45:05.358Z,9.50
2022-08-28T07:46:05.440Z,9.60
2022-08-28T07:47:05.336Z,10.90
2022-08-28T07:48:09.499Z,8.90
2022-08-28T07:49:05.313Z,15.10
2022-08-28T07:50:05.302Z,9.80
2022-08-28T07:51:05.296Z,9.30
2022-08-28T07:52:05.281Z,9.90
2022-08-28T07:53:05.378Z,11.30
2022-08-28T07:54:05.263Z,8.00
2022-08-28T07:55:05.249Z,10.80
2022-08-28T07:56:05.236Z,8.90
2022-08-28T07:57:05.226Z,8.70
2022-08-28T07:58:05.223Z,10.10
2022-08-28T07:59:05.207Z,15.20
2022-08-28T08:00:05.196Z,9.70
2022-08-28T08:01:05.202Z,8.10
2022-08-28T08:02:05.172Z,9.60
2022-08-28T08:03:05.211Z,9.00
2022-08-28T08:04:05.212Z,10.60
2022-08-28T08:05:05.406Z,11.00
2022-08-28T08:06:05.138Z,11.60
2022-08-28T08:07:05.273Z,9.60
2022-08-28T08:08:05.113Z,10.20
2022-08-28T08:09:05.102Z,8.90
2022-08-28T08:10:05.091Z,8.50
2022-08-28T08:11:05.086Z,10.70
2022-08-28T08:12:05.072Z,10.30
2022-08-28T08:13:05.064Z,10.00
2022-08-28T08:14:05.672Z,11.80
2022-08-28T08:15:05.046Z,9.50
2022-08-28T08:16:05.048Z,11.90
2022-08-28T08:17:05.021Z,12.20
2022-08-28T08:18:05.154Z,11.50
2022-08-28T08:19:05.006Z,10.80
2022-08-28T08:20:05.031Z,10.20
2022-08-28T08:21:04.982Z,11.10
2022-08-28T08:22:04.969Z,11.10
2022-08-28T08:23:04.958Z,13.10
2022-08-28T08:24:04.948Z,8.70
2022-08-28T08:25:04.940Z,11.80
2022-08-28T08:26:05.138Z,10.80
2022-08-28T08:27:04.936Z,10.10
2022-08-28T08:28:05.045Z,9.60
2022-08-28T08:29:04.929Z,9.20
2022-08-28T08:30:04.885Z,12.40
2022-08-28T08:31:04.970Z,9.10
2022-08-28T08:32:04.998Z,11.60
2022-08-28T08:33:04.852Z,9.30
2022-08-28T08:34:05.092Z,7.90
2022-08-28T08:35:04.830Z,13.00
2022-08-28T08:36:04.819Z,13.40
2022-08-28T08:37:04.813Z,12.60
2022-08-28T08:38:04.818Z,11.90
2022-08-28T08:39:06.527Z,9.30
2022-08-28T08:40:07.618Z,10.10
2022-08-28T08:41:04.768Z,10.40
2022-08-28T08:42:04.759Z,10.60
2022-08-28T08:43:04.750Z,10.80
2022-08-28T08:44:04.737Z,6.00
2022-08-28T08:45:04.728Z,8.70
2022-08-28T08:46:04.768Z,10.50
2022-08-28T08:47:04.709Z,8.90
2022-08-28T08:48:04.694Z,10.60
2022-08-28T08:49:04.692Z,9.40
2022-08-28T08:50:04.688Z,9.00
2022-08-28T08:51:04.664Z,11.70
2022-08-28T08:52:04.656Z,10.50
2022-08-28T08:53:04.645Z,10.00
2022-08-28T08:54:04.629Z,7.90
2022-08-28T08:55:04.620Z,9.30
2022-08-28T08:56:04.609Z,10.40
2022-08-28T08:57:04.600Z,8.20
2022-08-28T08:58:04.591Z,9.40
2022-08-28T08:59:04.582Z,6.20
2022-08-28T09:00:04.584Z,10.40
2022-08-28T09:01:04.651Z,8.40
2022-08-28T09:02:04.552Z,9.90
2022-08-28T09:03:04.585Z,8.50
2022-08-28T09:04:04.526Z,9.00
2022-08-28T09:05:04.554Z,8.10
2022-08-28T09:06:04.507Z,7.80
2022-08-28T09:07:04.500Z,10.40
2022-08-28T09:08:04.489Z,8.70
2022-08-28T09:09:04.482Z,10.00
2022-08-28T09:10:04.465Z,8.30
2022-08-28T09:11:04.464Z,8.40
2022-08-28T09:12:04.446Z,8.70
2022-08-28T09:13:04.450Z,11.70
2022-08-28T09:14:04.445Z,12.50
2022-08-28T09:15:04.417Z,11.40
2022-08-28T09:16:04.462Z,11.80
2022-08-28T09:17:04.395Z,8.10
2022-08-28T09:18:04.396Z,10.90
2022-08-28T09:19:04.377Z,12.30
2022-08-28T09:20:04.363Z,9.80
2022-08-28T09:21:04.355Z,11.20
2022-08-28T09:22:04.345Z,8.10
2022-08-28T09:23:12.439Z,9.40
2022-08-28T09:24:05.892Z,13.20
2022-08-28T09:25:04.330Z,12.00
2022-08-28T09:26:04.309Z,9.50
2022-08-28T09:27:04.314Z,11.90
2022-08-28T09:28:04.294Z,8.70
2022-08-28T09:29:04.274Z,9.50
2022-08-28T09:30:07.587Z,8.30
2022-08-28T09:31:04.332Z,10.80
2022-08-28T09:32:04.246Z,10.30
2022-08-28T09:33:04.244Z,11.40
2022-08-28T09:34:04.227Z,9.20
2022-08-28T09:35:04.247Z,9.20
2022-08-28T09:36:04.198Z,12.20
2022-08-28T09:37:04.190Z,10.00
2022-08-28T09:38:04.176Z,8.00
2022-08-28T09:39:04.172Z,8.70
2022-08-28T09:40:04.195Z,9.30
2022-08-28T09:41:04.151Z,10.40
2022-08-28T09:42:04.136Z,9.10
2022-08-28T09:43:04.134Z,8.40
2022-08-28T09:44:04.119Z,7.10
2022-08-28T09:45:09.428Z,9.10
2022-08-28T09:46:04.141Z,9.50
2022-08-28T09:47:04.085Z,10.10
2022-08-28T09:48:04.074Z,9.70
2022-08-28T09:49:04.068Z,9.10
2022-08-28T09:50:04.055Z,12.30
2022-08-28T09:51:04.048Z,13.20
2022-08-28T09:52:04.031Z,12.20
2022-08-28T09:53:04.022Z,10.30
2022-08-28T09:54:04.018Z,11.30
2022-08-28T09:55:04.005Z,9.40
2022-08-28T09:56:04.029Z,9.10
2022-08-28T09:57:04.178Z,10.10
2022-08-28T09:58:03.983Z,9.30
2022-08-28T09:59:03.961Z,8.90
2022-08-28T10:00:03.951Z,10.10
2022-08-28T10:01:03.940Z,10.30
2022-08-28T10:02:03.998Z,11.00
2022-08-28T10:03:07.561Z,10.00
2022-08-28T10:04:03.946Z,7.60
2022-08-28T10:05:03.999Z,10.40
2022-08-28T10:06:03.893Z,10.40
2022-08-28T10:07:03.886Z,11.60
2022-08-28T10:08:03.868Z,9.30
2022-08-28T10:09:04.155Z,9.90
2022-08-28T10:10:06.564Z,8.90
2022-08-28T10:11:03.833Z,8.80
2022-08-28T10:12:03.834Z,11.30
2022-08-28T10:13:03.818Z,9.40
2022-08-28T10:14:03.824Z,11.30
2022-08-28T10:15:03.803Z,9.70
2022-08-28T10:16:03.851Z,8.70
2022-08-28T10:17:03.793Z,10.30
2022-08-28T10:18:03.762Z,9.80
2022-08-28T10:19:03.968Z,10.80
2022-08-28T10:20:03.743Z,10.10
2022-08-28T10:21:03.725Z,12.40
2022-08-28T10:22:04.888Z,9.30
2022-08-28T10:23:03.703Z,12.20
2022-08-28T10:24:03.719Z,9.90
2022-08-28T10:25:03.691Z,9.90
2022-08-28T10:26:03.895Z,8.30
2022-08-28T10:27:03.681Z,9.00
2022-08-28T10:28:03.761Z,7.70
2022-08-28T10:29:03.795Z,8.90
2022-08-28T10:30:07.728Z,9.70
2022-08-28T10:31:03.764Z,8.50
2022-08-28T10:32:03.669Z,8.40
2022-08-28T10:33:03.815Z,9.00
2022-08-28T10:34:03.689Z,8.50
2022-08-28T10:35:03.637Z,8.60
2022-08-28T10:36:03.615Z,13.20
2022-08-28T10:37:03.621Z,7.90
2022-08-28T10:38:03.618Z,8.80
2022-08-28T10:39:03.643Z,10.40
2022-08-28T10:40:04.532Z,8.90
2022-08-28T10:41:03.554Z,9.40
2022-08-28T10:42:03.562Z,10.00
2022-08-28T10:43:03.617Z,8.10
2022-08-28T10:44:03.495Z,10.10
2022-08-28T10:45:03.477Z,8.80
2022-08-28T10:46:03.519Z,9.30
2022-08-28T10:47:03.459Z,11.50
2022-08-28T10:48:03.446Z,11.00
2022-08-28T10:49:03.433Z,7.90
2022-08-28T10:50:03.427Z,9.40
2022-08-28T10:51:03.413Z,9.80
2022-08-28T10:52:04.605Z,9.20
2022-08-28T10:53:03.393Z,10.10
2022-08-28T10:54:03.386Z,8.90
2022-08-28T10:55:03.507Z,7.90
2022-08-28T10:56:03.376Z,13.40
2022-08-28T10:57:03.361Z,9.90
2022-08-28T10:58:03.343Z,12.50
2022-08-28T10:59:03.328Z,11.00
2022-08-28T11:00:03.321Z,7.80
2022-08-28T11:01:03.407Z,11.60
2022-08-28T11:02:03.303Z,11.00
2022-08-28T11:03:03.348Z,10.30
2022-08-28T11:04:03.282Z,10.00
2022-08-28T11:05:03.278Z,8.50
2022-08-28T11:06:03.296Z,8.50
2022-08-28T11:07:03.263Z,9.30
2022-08-28T11:08:03.251Z,11.60
2022-08-28T11:09:03.235Z,8.80
2022-08-28T11:10:03.231Z,9.10
2022-08-28T11:11:03.208Z,11.70
2022-08-28T11:12:03.209Z,9.00
2022-08-28T11:13:03.188Z,9.70
2022-08-28T11:14:03.182Z,13.40
2022-08-28T11:15:03.333Z,9.30
2022-08-28T11:16:03.156Z,9.20
2022-08-28T11:17:03.251Z,9.80
2022-08-28T11:18:03.177Z,9.70
2022-08-28T11:19:03.142Z,9.60
2022-08-28T11:20:03.113Z,10.20
2022-08-28T11:21:03.098Z,9.00
2022-08-28T11:22:03.093Z,7.90
2022-08-28T11:23:03.079Z,11.70
2022-08-28T11:24:03.081Z,11.40
2022-08-28T11:25:06.522Z,8.70
2022-08-28T11:26:03.053Z,8.60
2022-08-28T11:27:03.039Z,9.40
2022-08-28T11:28:03.026Z,9.50
2022-08-28T11:29:04.274Z,8.70
2022-08-28T11:30:03.011Z,9.30
2022-08-28T11:31:03.089Z,10.80
2022-08-28T11:32:02.988Z,11.70
2022-08-28T11:33:02.973Z,12.20
2022-08-28T11:34:02.965Z,9.40
2022-08-28T11:35:02.951Z,9.80
2022-08-28T11:36:02.943Z,9.70
2022-08-28T11:37:02.928Z,9.80
2022-08-28T11:38:02.923Z,9.80
2022-08-28T11:39:02.920Z,11.80
2022-08-28T11:40:02.939Z,11.70
2022-08-28T11:41:03.076Z,10.40
2022-08-28T11:42:02.912Z,11.40
2022-08-28T11:43:02.915Z,8.60
2022-08-28T11:44:02.860Z,10.40
2022-08-28T11:45:02.848Z,11.50
2022-08-28T11:46:02.885Z,9.20
2022-08-28T11:47:02.825Z,11.30
2022-08-28T11:48:02.818Z,10.60
2022-08-28T11:49:02.807Z,11.70
2022-08-28T11:50:02.801Z,8.70
2022-08-28T11:51:02.783Z,9.40
2022-08-28T11:52:02.773Z,10.40
2022-08-28T11:53:02.793Z,10.70
2022-08-28T11:54:02.777Z,9.00
2022-08-28T11:55:03.722Z,11.40
2022-08-28T11:56:02.736Z,9.50
2022-08-28T11:57:02.728Z,10.00
2022-08-28T11:58:27.163Z,8.70
2022-08-28T11:59:34.923Z,9.40
2022-08-28T12:00:28.154Z,9.90
2022-08-28T12:01:27.122Z,10.00
2022-08-28T12:02:27.157Z,10.10
2022-08-28T12:03:27.100Z,13.60
2022-08-28T12:04:27.103Z,8.90
2022-08-28T12:05:27.083Z,8.80
2022-08-28T12:06:27.141Z,8.00
2022-08-28T12:07:27.060Z,11.30
2022-08-28T12:08:27.048Z,11.50
2022-08-28T12:09:27.303Z,9.20
2022-08-28T12:10:27.660Z,14.50
2022-08-28T12:11:27.019Z,11.20
2022-08-28T12:12:27.301Z,9.20
2022-08-28T12:13:27.003Z,10.50
2022-08-28T12:14:27.215Z,10.70
2022-08-28T12:15:27.250Z,10.00
2022-08-28T12:16:27.097Z,10.30
2022-08-28T12:17:31.055Z,13.40
2022-08-28T12:18:27.071Z,8.70
2022-08-28T12:19:26.970Z,11.50
2022-08-28T12:20:27.755Z,11.30
2022-08-28T12:21:26.912Z,10.70
2022-08-28T12:22:26.902Z,13.30
2022-08-28T12:23:27.157Z,11.70
2022-08-28T12:37:42.920Z,11.70
2022-08-28T12:38:34.321Z,11.20
2022-08-28T12:39:33.276Z,11.60
2022-08-28T12:40:33.440Z,12.50
2022-08-28T12:41:33.259Z,11.90
2022-08-28T12:42:33.242Z,11.10
2022-08-28T12:43:33.235Z,10.90
2022-08-28T12:44:33.223Z,10.60
2022-08-28T12:45:33.244Z,12.00
2022-08-28T12:46:33.224Z,10.50
2022-08-28T12:47:33.534Z,9.90
2022-08-28T12:48:33.395Z,10.90
2022-08-28T12:49:33.398Z,9.70
2022-08-28T12:50:33.395Z,11.80
2022-08-28T12:51:33.401Z,11.40
2022-08-28T12:59:57.828Z,9.00
2022-08-28T13:00:57.955Z,10.30
2022-08-28T13:01:57.911Z,10.90
2022-08-28T13:02:57.777Z,13.50
2022-08-28T13:03:57.761Z,12.10
2022-08-28T13:04:57.761Z,9.00
2022-08-28T13:05:57.742Z,9.90
2022-08-28T13:06:57.742Z,13.30
2022-08-28T13:07:57.719Z,10.20
2022-08-28T13:08:57.715Z,11.20
2022-08-28T13:09:58.719Z,12.90
2022-08-28T13:10:57.696Z,12.70
2022-08-28T13:11:57.682Z,14.00
2022-08-28T13:12:59.823Z,10.20
2022-08-28T13:13:57.659Z,10.50
2022-08-28T13:14:57.649Z,11.90
2022-08-28T13:15:57.646Z,9.70
2022-08-28T13:16:57.737Z,11.50
2022-08-28T13:17:57.625Z,10.70
2022-08-28T13:18:59.518Z,9.00
2022-08-28T13:19:57.964Z,13.40